Hauptseite
METAR-TAF:

METAR-TAF

Flughäfen :

Heeresflugplatz Celle

Celle, Deutschland

Breite: 52-36N, Länge: 010-01E, Höhe: 39 m

Beobachtung

Neuester Wetterbericht von vor 1 Stunde und 8 Minuten, um 18:20 UTC
Wind 3 kt aus Süd/Südost
Temperatur 27°C
Luftfeuchtigkeit 30%
Luftdruck 1016 hPa
Sichtweite 10 km oder mehr
Leicht bewölkt in der Höhe von 30000 ft

METAR: ETHC 051820Z 15003KT 9999 FEW300 27/08 Q1016 BLU+BLU+

Zeit: 21:28 (19:28 UTC)

Prognose

Neuester Wetterbericht von vor 3 Stunden und 2 Minuten, um 16:26 UTC
Gültige Prognose vom 05 um 17 UTC bis 06 um 02 UTC
Wind 5 kt aus Süd/Südost
Sichtweite 10 km oder mehr
Leicht bewölkt in der Höhe von 35000 ft

TAF: ETHC 051626Z 0517/0602 16005KT 9999 NSW FEW350

Wetterbeobachtungen und Prognosen von mehr als 4000 Flughäfen (METAR und TAF Bericht).

Die verfügbaren Stationen werden durch gelbe und rote Markierungen auf der Karte dargestellt.

Führen Sie die Maus auf sie, um den Namen der Station zu sehen.

Darauf klicken, um die Beobachtung von Wetterbeobachtungen und Prognosen zu sehen.

Um die Karte zu ändern : klicken Sie auf den grünen Tasten mit einem schwarzen Kreuz Zum Vergrößern, auf den grünen Button mit einem Gedankenstrich zu verkleinern, oder auf die grünen Pfeile für benachbarte Karten.


METAR-TAF: